createdAt,value
2023-08-21T00:01:16.093Z,31.17
2023-08-21T00:06:21.528Z,31.41
2023-08-21T00:11:25.228Z,31.47
2023-08-21T00:16:28.981Z,31.70
2023-08-21T00:21:34.387Z,31.82
2023-08-21T00:26:38.128Z,31.89
2023-08-21T00:31:41.882Z,31.86
2023-08-21T00:36:47.242Z,31.75
2023-08-21T00:41:50.970Z,31.64
2023-08-21T00:46:55.040Z,31.43
2023-08-21T00:52:01.095Z,31.34
2023-08-21T00:57:04.975Z,31.22
2023-08-21T01:02:07.943Z,31.13
2023-08-21T01:07:15.359Z,30.96
2023-08-21T01:12:28.208Z,30.90
2023-08-21T01:17:34.200Z,30.82
2023-08-21T01:22:40.901Z,30.54
2023-08-21T01:27:48.499Z,30.31
2023-08-21T01:33:07.418Z,30.12
2023-08-21T01:38:11.454Z,29.95
2023-08-21T01:43:16.129Z,29.87
2023-08-21T01:48:19.077Z,29.90
2023-08-21T01:53:22.809Z,29.86
2023-08-21T01:58:28.209Z,29.84
2023-08-21T02:03:32.044Z,29.77
2023-08-21T02:08:36.167Z,29.59
2023-08-21T02:13:40.743Z,29.48
2023-08-21T02:18:44.441Z,29.37
2023-08-21T02:23:48.131Z,29.37
2023-08-21T02:28:53.541Z,29.23
2023-08-21T02:33:57.308Z,29.10
2023-08-21T02:39:01.041Z,29.03
2023-08-21T02:44:06.639Z,28.88
2023-08-21T02:49:10.376Z,28.88
2023-08-21T02:54:14.192Z,28.83
2023-08-21T02:59:20.512Z,28.72
2023-08-21T03:04:24.236Z,28.67
2023-08-21T03:09:27.993Z,28.59
2023-08-21T03:14:33.378Z,28.55
2023-08-21T03:19:37.203Z,28.52
2023-08-21T03:24:40.911Z,28.45
2023-08-21T03:29:46.277Z,28.39
2023-08-21T03:34:50.032Z,28.34
2023-08-21T03:39:53.834Z,28.29
2023-08-21T03:44:59.187Z,28.25
2023-08-21T03:50:02.923Z,28.24
2023-08-21T03:55:07.232Z,28.23
2023-08-21T04:00:14.466Z,28.21
2023-08-21T04:05:18.267Z,28.08
2023-08-21T04:10:22.032Z,27.96
2023-08-21T04:15:28.595Z,27.78
2023-08-21T04:20:32.810Z,27.59
2023-08-21T04:25:36.485Z,27.17
2023-08-21T04:30:42.439Z,27.09
2023-08-21T04:35:46.151Z,27.04
2023-08-21T04:40:49.885Z,26.90
2023-08-21T04:45:55.709Z,26.75
2023-08-21T04:50:59.446Z,26.75
2023-08-21T04:56:03.277Z,26.72
2023-08-21T05:01:09.146Z,26.55
2023-08-21T05:06:12.831Z,26.42
2023-08-21T05:11:16.508Z,26.26
2023-08-21T05:16:23.193Z,26.08
2023-08-21T05:21:27.797Z,25.98
2023-08-21T05:26:30.720Z,25.87
2023-08-21T05:31:36.120Z,25.80
2023-08-21T05:36:39.885Z,25.69
2023-08-21T05:41:43.572Z,25.78
2023-08-21T05:46:48.992Z,25.68
2023-08-21T05:51:52.709Z,25.70
2023-08-21T05:56:56.426Z,25.63
2023-08-21T06:02:02.666Z,25.55
2023-08-21T06:07:06.562Z,25.48
2023-08-21T06:12:10.543Z,25.36
2023-08-21T06:17:16.963Z,25.38
2023-08-21T06:22:20.737Z,25.33
2023-08-21T06:27:24.529Z,25.27
2023-08-21T06:32:29.993Z,25.12
2023-08-21T06:37:33.722Z,24.96
2023-08-21T06:42:37.792Z,25.00
2023-08-21T06:47:43.489Z,24.96
2023-08-21T06:52:47.244Z,24.93
2023-08-21T06:57:50.990Z,24.93
2023-08-21T07:02:56.444Z,24.71
2023-08-21T07:08:00.192Z,24.44
2023-08-21T07:13:04.013Z,24.12
2023-08-21T07:18:09.839Z,24.03
2023-08-21T07:23:13.603Z,24.06
2023-08-21T07:28:17.379Z,24.05
2023-08-21T07:33:22.844Z,23.95
2023-08-21T07:38:26.721Z,23.78
2023-08-21T07:43:30.467Z,23.69
2023-08-21T07:48:37.149Z,23.65
2023-08-21T07:53:41.190Z,23.54
2023-08-21T07:58:44.992Z,23.47
2023-08-21T08:03:50.436Z,23.33
2023-08-21T08:08:54.446Z,23.14
2023-08-21T08:13:58.157Z,23.02
2023-08-21T08:19:03.519Z,22.84
2023-08-21T08:24:07.524Z,22.73
2023-08-21T08:29:12.096Z,22.57
2023-08-21T08:34:17.458Z,22.52
2023-08-21T08:39:21.138Z,22.48
2023-08-21T08:44:27.428Z,22.34
2023-08-21T08:49:33.298Z,22.21
2023-08-21T08:54:36.985Z,22.09
2023-08-21T08:59:40.710Z,21.96
2023-08-21T09:04:46.080Z,21.86
2023-08-21T09:09:51.140Z,21.71
2023-08-21T09:14:54.454Z,21.59
2023-08-21T09:20:06.086Z,21.53
2023-08-21T09:25:10.448Z,21.40
2023-08-21T09:30:14.797Z,21.33
2023-08-21T09:35:20.264Z,21.25
2023-08-21T09:40:24.617Z,21.14
2023-08-21T09:45:29.824Z,21.17
2023-08-21T09:50:34.680Z,20.94
2023-08-21T09:55:40.430Z,20.91
2023-08-21T10:00:46.203Z,20.74
2023-08-21T10:05:52.786Z,20.75
2023-08-21T10:10:56.924Z,20.61
2023-08-21T10:16:01.518Z,20.52
2023-08-21T10:21:17.528Z,20.48
2023-08-21T10:26:22.715Z,20.39
2023-08-21T10:31:30.880Z,20.41
2023-08-21T10:37:07.438Z,20.39
2023-08-21T10:42:12.139Z,20.26
2023-08-21T10:47:17.989Z,20.19
2023-08-21T10:52:26.470Z,20.00
2023-08-21T10:57:32.104Z,19.93
2023-08-21T11:02:35.865Z,20.09
2023-08-21T11:07:42.687Z,20.02
2023-08-21T11:12:53.505Z,19.98
2023-08-21T11:17:58.272Z,19.96
2023-08-21T11:23:04.920Z,19.97
2023-08-21T11:28:08.726Z,20.24
2023-08-21T11:33:13.432Z,20.29
2023-08-21T11:38:20.627Z,20.20
2023-08-21T11:43:24.682Z,20.11
2023-08-21T11:48:28.607Z,19.61
2023-08-21T11:53:39.244Z,19.54
2023-08-21T11:58:43.617Z,19.74
2023-08-21T12:03:47.718Z,19.74
2023-08-21T12:08:53.201Z,19.71
2023-08-21T12:13:56.168Z,19.27
2023-08-21T12:18:59.899Z,18.96
2023-08-21T12:24:06.130Z,19.02
2023-08-21T12:29:09.844Z,18.98
2023-08-21T12:34:13.564Z,19.07
2023-08-21T12:39:20.709Z,19.41
2023-08-21T12:44:24.488Z,19.37
2023-08-21T12:49:28.251Z,19.74
2023-08-21T12:54:33.691Z,19.91
2023-08-21T12:59:36.655Z,19.70
2023-08-21T13:04:40.413Z,19.28
2023-08-21T13:09:45.836Z,18.71
2023-08-21T13:14:48.815Z,18.49
2023-08-21T13:19:52.670Z,18.43
2023-08-21T13:24:58.003Z,18.29
2023-08-21T13:30:01.696Z,18.34
2023-08-21T13:35:05.754Z,18.56
2023-08-21T13:40:13.467Z,18.84
2023-08-21T13:45:19.093Z,19.04
2023-08-21T13:50:22.805Z,19.14
2023-08-21T13:55:28.276Z,19.12
2023-08-21T14:00:31.297Z,19.19
2023-08-21T14:05:35.070Z,19.20
2023-08-21T14:10:40.629Z,19.24
2023-08-21T14:15:44.312Z,19.36
2023-08-21T14:20:48.036Z,19.62
2023-08-21T14:25:53.488Z,19.95
2023-08-21T14:30:56.439Z,20.06
2023-08-21T14:36:00.965Z,19.96
2023-08-21T14:41:06.374Z,20.10
2023-08-21T14:46:10.270Z,20.37
2023-08-21T14:51:14.015Z,20.57
2023-08-21T14:56:19.464Z,20.93
2023-08-21T15:01:23.248Z,21.28
2023-08-21T15:06:26.943Z,21.38
2023-08-21T15:11:32.297Z,21.65
2023-08-21T15:16:35.263Z,21.81
2023-08-21T15:21:40.240Z,21.99
2023-08-21T15:26:48.342Z,22.35
2023-08-21T15:31:52.100Z,22.63
2023-08-21T15:36:55.917Z,22.60
2023-08-21T15:42:01.476Z,23.12
2023-08-21T15:47:19.957Z,23.55
2023-08-21T15:52:29.112Z,24.13
2023-08-21T15:57:34.593Z,24.63
2023-08-21T16:02:38.711Z,25.13
2023-08-21T16:07:42.624Z,25.32
2023-08-21T16:12:48.024Z,25.77
2023-08-21T16:17:51.950Z,25.91
2023-08-21T16:22:55.803Z,26.13
2023-08-21T16:28:01.210Z,26.59
2023-08-21T16:33:05.410Z,26.41
2023-08-21T16:38:09.194Z,26.26
2023-08-21T16:43:14.723Z,26.25
2023-08-21T16:48:18.575Z,26.57
2023-08-21T16:53:23.709Z,26.86
2023-08-21T16:58:30.788Z,27.24
2023-08-21T17:03:34.542Z,27.05
2023-08-21T17:08:38.268Z,27.22
2023-08-21T17:13:43.627Z,27.26
2023-08-21T17:18:47.323Z,27.35
2023-08-21T17:23:51.053Z,26.99
2023-08-21T17:28:56.449Z,26.62
2023-08-21T17:34:00.158Z,26.80
2023-08-21T17:39:03.864Z,26.96
2023-08-21T17:44:09.235Z,26.25
2023-08-21T17:49:13.483Z,25.99
2023-08-21T17:54:17.299Z,25.70
2023-08-21T17:59:22.740Z,25.67
2023-08-21T18:04:26.765Z,25.03
2023-08-21T18:09:30.543Z,24.27
2023-08-21T18:14:35.871Z,22.80
2023-08-21T18:19:46.365Z,23.16
2023-08-21T18:24:51.029Z,23.55
2023-08-21T18:29:56.411Z,23.35
2023-08-21T18:35:00.140Z,23.74
2023-08-21T18:40:03.986Z,22.72
2023-08-21T18:45:10.266Z,23.26
2023-08-21T18:50:14.023Z,24.07
2023-08-21T18:55:18.038Z,24.29
2023-08-21T19:00:23.642Z,23.74
2023-08-21T19:05:27.439Z,23.65
2023-08-21T19:10:31.181Z,23.43
2023-08-21T19:15:36.961Z,23.69
2023-08-21T19:20:41.633Z,23.48
2023-08-21T19:25:45.388Z,23.59
2023-08-21T19:30:51.781Z,23.67
2023-08-21T19:35:55.574Z,23.51
2023-08-21T19:40:59.304Z,23.53
2023-08-21T19:46:04.853Z,23.28
2023-08-21T19:51:08.737Z,23.00
2023-08-21T19:56:12.450Z,22.82
2023-08-21T20:01:17.895Z,22.83
2023-08-21T20:06:22.000Z,22.74
2023-08-21T20:11:26.092Z,22.80
2023-08-21T20:16:31.534Z,22.41
2023-08-21T20:21:36.461Z,21.55
2023-08-21T20:26:40.208Z,22.32
2023-08-21T20:31:45.822Z,22.57
2023-08-21T20:36:50.053Z,22.14
2023-08-21T20:41:53.823Z,22.51
2023-08-21T20:46:59.305Z,22.70
2023-08-21T20:52:03.072Z,22.45
2023-08-21T20:57:07.058Z,22.18
2023-08-21T21:02:14.733Z,22.12
2023-08-21T21:07:18.481Z,22.56
2023-08-21T21:12:22.476Z,22.51
2023-08-21T21:17:27.907Z,22.37
2023-08-21T21:22:31.703Z,22.63
2023-08-21T21:27:35.442Z,22.55
2023-08-21T21:32:40.912Z,22.45
2023-08-21T21:37:44.776Z,22.85
2023-08-21T21:42:48.498Z,22.90
2023-08-21T21:47:53.868Z,23.22
2023-08-21T21:52:58.178Z,22.90
2023-08-21T21:58:01.941Z,22.50
2023-08-21T22:03:08.008Z,22.55
2023-08-21T22:08:11.909Z,22.37
2023-08-21T22:13:15.805Z,22.67
2023-08-21T22:18:21.220Z,22.40
2023-08-21T22:23:25.002Z,22.39
2023-08-21T22:28:28.909Z,22.09
2023-08-21T22:33:35.368Z,22.45
2023-08-21T22:38:39.142Z,22.82
2023-08-21T22:43:42.854Z,23.42
2023-08-21T22:48:49.260Z,23.23
2023-08-21T22:53:53.019Z,23.09
2023-08-21T22:58:56.891Z,23.46
2023-08-21T23:04:02.382Z,23.90
2023-08-21T23:09:06.227Z,23.87
2023-08-21T23:14:10.574Z,23.77
2023-08-21T23:19:19.419Z,23.96
2023-08-21T23:24:23.209Z,23.67
2023-08-21T23:29:27.004Z,23.23
2023-08-21T23:34:33.179Z,23.20
2023-08-21T23:39:36.891Z,22.98
2023-08-21T23:44:40.590Z,22.93
2023-08-21T23:49:45.945Z,23.07
2023-08-21T23:54:49.637Z,22.92
2023-08-21T23:59:53.385Z,23.04
